sensor_id;sensor_type;location;lat;lon;timestamp;P1;durP1;ratioP1;P2;durP2;ratioP2
67804;SDS011;54603;45.638;11.714;2022-08-01T00:01:13;4.10;;;2.90;;
67804;SDS011;54603;45.638;11.714;2022-08-01T00:03:39;6.50;;;3.00;;
67804;SDS011;54603;45.638;11.714;2022-08-01T00:06:05;3.80;;;2.90;;
67804;SDS011;54603;45.638;11.714;2022-08-01T00:08:30;8.50;;;2.70;;
67804;SDS011;54603;45.638;11.714;2022-08-01T00:10:56;3.20;;;2.90;;
67804;SDS011;54603;45.638;11.714;2022-08-01T00:13:22;3.60;;;2.70;;
67804;SDS011;54603;45.638;11.714;2022-08-01T00:15:47;2.70;;;2.50;;
67804;SDS011;54603;45.638;11.714;2022-08-01T00:18:13;3.70;;;2.60;;
67804;SDS011;54603;45.638;11.714;2022-08-01T00:20:38;4.30;;;3.20;;
67804;SDS011;54603;45.638;11.714;2022-08-01T00:23:04;4.90;;;3.00;;
67804;SDS011;54603;45.638;11.714;2022-08-01T00:25:30;3.60;;;2.90;;
67804;SDS011;54603;45.638;11.714;2022-08-01T00:27:55;3.40;;;2.80;;
67804;SDS011;54603;45.638;11.714;2022-08-01T00:30:21;5.70;;;3.00;;
67804;SDS011;54603;45.638;11.714;2022-08-01T00:32:46;3.30;;;2.80;;
67804;SDS011;54603;45.638;11.714;2022-08-01T00:35:12;3.20;;;2.80;;
67804;SDS011;54603;45.638;11.714;2022-08-01T00:37:38;3.80;;;2.60;;
67804;SDS011;54603;45.638;11.714;2022-08-01T00:40:05;3.10;;;2.80;;
67804;SDS011;54603;45.638;11.714;2022-08-01T00:42:31;3.70;;;2.70;;
67804;SDS011;54603;45.638;11.714;2022-08-01T00:44:57;3.70;;;2.40;;
67804;SDS011;54603;45.638;11.714;2022-08-01T00:47:22;3.90;;;3.10;;
67804;SDS011;54603;45.638;11.714;2022-08-01T00:49:48;3.10;;;2.80;;
67804;SDS011;54603;45.638;11.714;2022-08-01T00:52:14;3.30;;;3.00;;
67804;SDS011;54603;45.638;11.714;2022-08-01T00:54:39;3.00;;;2.70;;
67804;SDS011;54603;45.638;11.714;2022-08-01T00:57:05;4.60;;;2.60;;
67804;SDS011;54603;45.638;11.714;2022-08-01T00:59:31;2.90;;;2.60;;
67804;SDS011;54603;45.638;11.714;2022-08-01T01:01:56;4.10;;;2.70;;
67804;SDS011;54603;45.638;11.714;2022-08-01T01:04:22;2.90;;;2.60;;
67804;SDS011;54603;45.638;11.714;2022-08-01T01:06:57;3.90;;;2.80;;
67804;SDS011;54603;45.638;11.714;2022-08-01T01:09:46;4.80;;;3.00;;
67804;SDS011;54603;45.638;11.714;2022-08-01T01:14:57;3.70;;;2.70;;
67804;SDS011;54603;45.638;11.714;2022-08-01T01:17:41;4.00;;;2.70;;
67804;SDS011;54603;45.638;11.714;2022-08-01T01:20:21;4.10;;;2.70;;
67804;SDS011;54603;45.638;11.714;2022-08-01T01:28:55;3.30;;;2.40;;
67804;SDS011;54603;45.638;11.714;2022-08-01T01:31:25;3.80;;;2.70;;
67804;SDS011;54603;45.638;11.714;2022-08-01T01:33:54;2.80;;;2.60;;
67804;SDS011;54603;45.638;11.714;2022-08-01T01:36:20;2.70;;;2.50;;
67804;SDS011;54603;45.638;11.714;2022-08-01T01:38:47;3.00;;;2.70;;
67804;SDS011;54603;45.638;11.714;2022-08-01T01:41:14;3.00;;;2.70;;
67804;SDS011;54603;45.638;11.714;2022-08-01T01:43:41;3.50;;;2.70;;
67804;SDS011;54603;45.638;11.714;2022-08-01T01:46:08;3.40;;;2.60;;
67804;SDS011;54603;45.638;11.714;2022-08-01T01:48:34;3.20;;;2.50;;
67804;SDS011;54603;45.638;11.714;2022-08-01T01:51:01;4.10;;;3.00;;
67804;SDS011;54603;45.638;11.714;2022-08-01T01:53:27;3.10;;;2.60;;
67804;SDS011;54603;45.638;11.714;2022-08-01T01:55:53;3.30;;;2.80;;
67804;SDS011;54603;45.638;11.714;2022-08-01T01:58:21;4.00;;;2.60;;
67804;SDS011;54603;45.638;11.714;2022-08-01T02:00:48;3.90;;;2.50;;
67804;SDS011;54603;45.638;11.714;2022-08-01T02:03:15;2.70;;;2.40;;
67804;SDS011;54603;45.638;11.714;2022-08-01T02:05:41;3.10;;;2.80;;
67804;SDS011;54603;45.638;11.714;2022-08-01T02:08:08;4.60;;;2.50;;
67804;SDS011;54603;45.638;11.714;2022-08-01T02:10:35;3.30;;;2.60;;
67804;SDS011;54603;45.638;11.714;2022-08-01T02:13:03;3.20;;;2.60;;
67804;SDS011;54603;45.638;11.714;2022-08-01T02:15:31;2.80;;;2.40;;
67804;SDS011;54603;45.638;11.714;2022-08-01T02:17:59;2.70;;;2.50;;
67804;SDS011;54603;45.638;11.714;2022-08-01T02:20:27;3.00;;;2.50;;
67804;SDS011;54603;45.638;11.714;2022-08-01T02:23:00;4.00;;;2.90;;
67804;SDS011;54603;45.638;11.714;2022-08-01T02:25:33;4.10;;;2.70;;
67804;SDS011;54603;45.638;11.714;2022-08-01T02:28:07;3.00;;;2.70;;
67804;SDS011;54603;45.638;11.714;2022-08-01T02:30:36;3.70;;;2.40;;
67804;SDS011;54603;45.638;11.714;2022-08-01T02:33:05;2.70;;;2.50;;
67804;SDS011;54603;45.638;11.714;2022-08-01T02:35:41;3.30;;;2.90;;
67804;SDS011;54603;45.638;11.714;2022-08-01T02:38:09;3.20;;;2.50;;
67804;SDS011;54603;45.638;11.714;2022-08-01T02:40:36;3.50;;;2.50;;
67804;SDS011;54603;45.638;11.714;2022-08-01T02:43:03;2.80;;;2.50;;
67804;SDS011;54603;45.638;11.714;2022-08-01T02:45:30;3.80;;;2.70;;
67804;SDS011;54603;45.638;11.714;2022-08-01T02:47:59;4.00;;;2.90;;
67804;SDS011;54603;45.638;11.714;2022-08-01T02:50:30;2.90;;;2.60;;
67804;SDS011;54603;45.638;11.714;2022-08-01T02:52:57;4.20;;;2.40;;
67804;SDS011;54603;45.638;11.714;2022-08-01T02:55:23;2.90;;;2.60;;
67804;SDS011;54603;45.638;11.714;2022-08-01T02:57:49;3.00;;;2.70;;
67804;SDS011;54603;45.638;11.714;2022-08-01T03:00:17;3.10;;;2.50;;
67804;SDS011;54603;45.638;11.714;2022-08-01T03:02:43;2.90;;;2.50;;
67804;SDS011;54603;45.638;11.714;2022-08-01T03:05:10;3.50;;;2.60;;
67804;SDS011;54603;45.638;11.714;2022-08-01T03:07:37;5.20;;;2.60;;
67804;SDS011;54603;45.638;11.714;2022-08-01T03:10:04;3.40;;;2.80;;
67804;SDS011;54603;45.638;11.714;2022-08-01T03:12:31;2.50;;;2.30;;
67804;SDS011;54603;45.638;11.714;2022-08-01T03:14:59;3.30;;;2.80;;
67804;SDS011;54603;45.638;11.714;2022-08-01T03:17:26;3.00;;;2.70;;
67804;SDS011;54603;45.638;11.714;2022-08-01T03:19:53;5.40;;;2.50;;
67804;SDS011;54603;45.638;11.714;2022-08-01T03:22:21;2.90;;;2.40;;
67804;SDS011;54603;45.638;11.714;2022-08-01T03:24:49;2.80;;;2.60;;
67804;SDS011;54603;45.638;11.714;2022-08-01T03:27:16;3.90;;;2.80;;
67804;SDS011;54603;45.638;11.714;2022-08-01T03:29:44;4.40;;;2.60;;
67804;SDS011;54603;45.638;11.714;2022-08-01T03:32:10;4.10;;;2.50;;
67804;SDS011;54603;45.638;11.714;2022-08-01T03:34:36;3.90;;;2.30;;
67804;SDS011;54603;45.638;11.714;2022-08-01T03:37:03;3.20;;;2.70;;
67804;SDS011;54603;45.638;11.714;2022-08-01T03:39:37;3.60;;;2.90;;
67804;SDS011;54603;45.638;11.714;2022-08-01T03:42:16;2.60;;;2.40;;
67804;SDS011;54603;45.638;11.714;2022-08-01T03:44:49;3.20;;;2.50;;
67804;SDS011;54603;45.638;11.714;2022-08-01T03:47:18;4.80;;;2.40;;
67804;SDS011;54603;45.638;11.714;2022-08-01T03:49:47;2.70;;;2.50;;
67804;SDS011;54603;45.638;11.714;2022-08-01T03:52:14;2.70;;;2.50;;
67804;SDS011;54603;45.638;11.714;2022-08-01T03:54:41;2.50;;;2.30;;
67804;SDS011;54603;45.638;11.714;2022-08-01T03:57:11;5.50;;;2.60;;
67804;SDS011;54603;45.638;11.714;2022-08-01T03:59:36;8.00;;;2.90;;
67804;SDS011;54603;45.638;11.714;2022-08-01T04:02:03;5.60;;;2.80;;
67804;SDS011;54603;45.638;11.714;2022-08-01T04:04:29;4.90;;;2.80;;
67804;SDS011;54603;45.638;11.714;2022-08-01T04:06:55;7.80;;;2.90;;
67804;SDS011;54603;45.638;11.714;2022-08-01T04:09:21;5.80;;;2.80;;
67804;SDS011;54603;45.638;11.714;2022-08-01T04:11:47;6.40;;;2.70;;
67804;SDS011;54603;45.638;11.714;2022-08-01T04:14:13;8.50;;;2.80;;
67804;SDS011;54603;45.638;11.714;2022-08-01T04:16:39;4.50;;;3.10;;
67804;SDS011;54603;45.638;11.714;2022-08-01T04:19:05;5.70;;;2.50;;
67804;SDS011;54603;45.638;11.714;2022-08-01T04:21:34;5.60;;;2.80;;
67804;SDS011;54603;45.638;11.714;2022-08-01T04:24:01;5.50;;;3.00;;
67804;SDS011;54603;45.638;11.714;2022-08-01T04:26:48;6.60;;;2.60;;
67804;SDS011;54603;45.638;11.714;2022-08-01T04:29:16;5.50;;;2.70;;
67804;SDS011;54603;45.638;11.714;2022-08-01T04:34:35;3.50;;;2.90;;
67804;SDS011;54603;45.638;11.714;2022-08-01T04:37:04;3.70;;;2.60;;
67804;SDS011;54603;45.638;11.714;2022-08-01T04:39:30;4.80;;;2.50;;
67804;SDS011;54603;45.638;11.714;2022-08-01T04:41:58;5.70;;;2.60;;
67804;SDS011;54603;45.638;11.714;2022-08-01T04:44:27;6.30;;;2.60;;
67804;SDS011;54603;45.638;11.714;2022-08-01T04:46:53;2.80;;;2.10;;
67804;SDS011;54603;45.638;11.714;2022-08-01T04:49:19;5.60;;;2.60;;
67804;SDS011;54603;45.638;11.714;2022-08-01T04:51:52;4.70;;;2.50;;
67804;SDS011;54603;45.638;11.714;2022-08-01T04:54:29;6.90;;;2.40;;
67804;SDS011;54603;45.638;11.714;2022-08-01T04:56:58;2.90;;;2.40;;
67804;SDS011;54603;45.638;11.714;2022-08-01T04:59:25;4.00;;;2.40;;
67804;SDS011;54603;45.638;11.714;2022-08-01T05:04:32;4.30;;;2.50;;
67804;SDS011;54603;45.638;11.714;2022-08-01T05:06:58;8.40;;;2.80;;
67804;SDS011;54603;45.638;11.714;2022-08-01T05:09:25;6.60;;;2.90;;
67804;SDS011;54603;45.638;11.714;2022-08-01T05:11:51;8.80;;;2.60;;
67804;SDS011;54603;45.638;11.714;2022-08-01T05:14:16;5.80;;;2.60;;
67804;SDS011;54603;45.638;11.714;2022-08-01T05:16:42;6.50;;;2.30;;
67804;SDS011;54603;45.638;11.714;2022-08-01T05:19:08;8.30;;;2.50;;
67804;SDS011;54603;45.638;11.714;2022-08-01T05:21:34;5.40;;;2.60;;
67804;SDS011;54603;45.638;11.714;2022-08-01T05:24:08;6.50;;;2.70;;
67804;SDS011;54603;45.638;11.714;2022-08-01T05:27:04;5.00;;;2.80;;
67804;SDS011;54603;45.638;11.714;2022-08-01T05:29:35;3.90;;;2.50;;
67804;SDS011;54603;45.638;11.714;2022-08-01T05:32:18;4.50;;;2.40;;
67804;SDS011;54603;45.638;11.714;2022-08-01T05:34:46;3.90;;;2.50;;
67804;SDS011;54603;45.638;11.714;2022-08-01T05:37:15;6.70;;;2.80;;
67804;SDS011;54603;45.638;11.714;2022-08-01T05:39:41;7.40;;;2.50;;
67804;SDS011;54603;45.638;11.714;2022-08-01T05:42:07;5.50;;;2.40;;
67804;SDS011;54603;45.638;11.714;2022-08-01T05:44:34;5.20;;;2.60;;
67804;SDS011;54603;45.638;11.714;2022-08-01T05:47:03;8.00;;;2.20;;
67804;SDS011;54603;45.638;11.714;2022-08-01T05:49:28;4.80;;;2.40;;
67804;SDS011;54603;45.638;11.714;2022-08-01T05:51:54;4.90;;;2.40;;
67804;SDS011;54603;45.638;11.714;2022-08-01T05:54:20;3.60;;;2.50;;
67804;SDS011;54603;45.638;11.714;2022-08-01T05:56:45;6.50;;;2.60;;
67804;SDS011;54603;45.638;11.714;2022-08-01T05:59:15;5.10;;;2.40;;
67804;SDS011;54603;45.638;11.714;2022-08-01T06:01:59;3.70;;;2.40;;
67804;SDS011;54603;45.638;11.714;2022-08-01T06:04:28;4.50;;;2.30;;
67804;SDS011;54603;45.638;11.714;2022-08-01T06:07:04;4.80;;;2.20;;
67804;SDS011;54603;45.638;11.714;2022-08-01T06:09:35;4.10;;;2.30;;
67804;SDS011;54603;45.638;11.714;2022-08-01T06:12:12;3.00;;;2.20;;
67804;SDS011;54603;45.638;11.714;2022-08-01T06:15:06;3.30;;;2.30;;
67804;SDS011;54603;45.638;11.714;2022-08-01T06:17:38;3.70;;;2.40;;
67804;SDS011;54603;45.638;11.714;2022-08-01T06:20:07;3.70;;;2.30;;
67804;SDS011;54603;45.638;11.714;2022-08-01T06:22:34;4.90;;;2.10;;
67804;SDS011;54603;45.638;11.714;2022-08-01T06:25:00;3.80;;;2.30;;
67804;SDS011;54603;45.638;11.714;2022-08-01T06:27:33;2.70;;;2.20;;
67804;SDS011;54603;45.638;11.714;2022-08-01T06:30:04;2.70;;;2.20;;
67804;SDS011;54603;45.638;11.714;2022-08-01T06:32:33;6.00;;;2.40;;
67804;SDS011;54603;45.638;11.714;2022-08-01T06:34:58;2.30;;;2.10;;
67804;SDS011;54603;45.638;11.714;2022-08-01T06:37:28;2.30;;;2.00;;
67804;SDS011;54603;45.638;11.714;2022-08-01T06:39:55;4.40;;;2.30;;
67804;SDS011;54603;45.638;11.714;2022-08-01T06:42:22;3.10;;;1.90;;
67804;SDS011;54603;45.638;11.714;2022-08-01T06:44:49;3.10;;;2.50;;
67804;SDS011;54603;45.638;11.714;2022-08-01T06:47:14;4.20;;;2.10;;
67804;SDS011;54603;45.638;11.714;2022-08-01T06:49:40;3.40;;;1.90;;
67804;SDS011;54603;45.638;11.714;2022-08-01T06:52:06;4.10;;;2.20;;
67804;SDS011;54603;45.638;11.714;2022-08-01T06:54:31;3.10;;;1.90;;
67804;SDS011;54603;45.638;11.714;2022-08-01T06:56:59;2.90;;;1.90;;
67804;SDS011;54603;45.638;11.714;2022-08-01T06:59:35;3.90;;;2.10;;
67804;SDS011;54603;45.638;11.714;2022-08-01T07:02:01;4.40;;;2.00;;
67804;SDS011;54603;45.638;11.714;2022-08-01T07:04:27;2.90;;;1.90;;
67804;SDS011;54603;45.638;11.714;2022-08-01T07:06:53;2.50;;;1.90;;
67804;SDS011;54603;45.638;11.714;2022-08-01T07:09:18;2.70;;;2.10;;
67804;SDS011;54603;45.638;11.714;2022-08-01T07:11:44;3.50;;;2.10;;
67804;SDS011;54603;45.638;11.714;2022-08-01T07:14:19;3.20;;;2.00;;
67804;SDS011;54603;45.638;11.714;2022-08-01T07:16:45;2.60;;;2.00;;
67804;SDS011;54603;45.638;11.714;2022-08-01T07:19:11;3.90;;;2.20;;
67804;SDS011;54603;45.638;11.714;2022-08-01T07:21:37;2.40;;;1.90;;
67804;SDS011;54603;45.638;11.714;2022-08-01T07:24:04;6.30;;;2.20;;
67804;SDS011;54603;45.638;11.714;2022-08-01T07:26:30;3.30;;;2.10;;
67804;SDS011;54603;45.638;11.714;2022-08-01T07:28:56;3.40;;;2.00;;
67804;SDS011;54603;45.638;11.714;2022-08-01T07:31:22;2.00;;;1.80;;
67804;SDS011;54603;45.638;11.714;2022-08-01T07:33:48;2.30;;;2.00;;
67804;SDS011;54603;45.638;11.714;2022-08-01T07:36:15;3.90;;;2.20;;
67804;SDS011;54603;45.638;11.714;2022-08-01T07:38:41;3.30;;;2.20;;
67804;SDS011;54603;45.638;11.714;2022-08-01T07:41:07;3.50;;;2.00;;
67804;SDS011;54603;45.638;11.714;2022-08-01T07:43:33;3.00;;;1.90;;
67804;SDS011;54603;45.638;11.714;2022-08-01T07:46:01;2.50;;;2.00;;
67804;SDS011;54603;45.638;11.714;2022-08-01T07:48:27;3.40;;;1.90;;
67804;SDS011;54603;45.638;11.714;2022-08-01T07:50:54;2.30;;;2.10;;
67804;SDS011;54603;45.638;11.714;2022-08-01T07:53:19;3.50;;;2.20;;
67804;SDS011;54603;45.638;11.714;2022-08-01T07:55:45;3.70;;;2.10;;
67804;SDS011;54603;45.638;11.714;2022-08-01T07:58:11;3.10;;;2.20;;
67804;SDS011;54603;45.638;11.714;2022-08-01T08:00:36;3.80;;;2.00;;
67804;SDS011;54603;45.638;11.714;2022-08-01T08:03:03;2.10;;;1.90;;
67804;SDS011;54603;45.638;11.714;2022-08-01T08:05:29;5.60;;;2.20;;
67804;SDS011;54603;45.638;11.714;2022-08-01T08:07:55;3.30;;;2.00;;
67804;SDS011;54603;45.638;11.714;2022-08-01T08:10:20;2.20;;;2.00;;
67804;SDS011;54603;45.638;11.714;2022-08-01T08:12:46;2.50;;;2.30;;
67804;SDS011;54603;45.638;11.714;2022-08-01T08:15:13;2.30;;;2.10;;
67804;SDS011;54603;45.638;11.714;2022-08-01T08:17:40;2.50;;;2.30;;
67804;SDS011;54603;45.638;11.714;2022-08-01T08:20:06;3.50;;;2.40;;
67804;SDS011;54603;45.638;11.714;2022-08-01T08:22:33;2.50;;;2.30;;
67804;SDS011;54603;45.638;11.714;2022-08-01T08:24:59;2.50;;;2.30;;
67804;SDS011;54603;45.638;11.714;2022-08-01T08:27:26;2.10;;;1.90;;
67804;SDS011;54603;45.638;11.714;2022-08-01T08:29:51;2.90;;;2.10;;
67804;SDS011;54603;45.638;11.714;2022-08-01T08:32:18;2.80;;;2.00;;
67804;SDS011;54603;45.638;11.714;2022-08-01T08:34:44;2.40;;;2.20;;
67804;SDS011;54603;45.638;11.714;2022-08-01T08:37:11;3.60;;;2.40;;
67804;SDS011;54603;45.638;11.714;2022-08-01T08:39:38;2.40;;;2.10;;
67804;SDS011;54603;45.638;11.714;2022-08-01T08:42:08;3.30;;;2.40;;
67804;SDS011;54603;45.638;11.714;2022-08-01T08:44:41;2.60;;;2.30;;
67804;SDS011;54603;45.638;11.714;2022-08-01T08:47:07;3.90;;;2.40;;
67804;SDS011;54603;45.638;11.714;2022-08-01T08:49:34;2.40;;;2.20;;
67804;SDS011;54603;45.638;11.714;2022-08-01T08:52:01;4.00;;;2.40;;
67804;SDS011;54603;45.638;11.714;2022-08-01T08:54:28;4.10;;;2.30;;
67804;SDS011;54603;45.638;11.714;2022-08-01T08:56:55;2.80;;;2.30;;
67804;SDS011;54603;45.638;11.714;2022-08-01T08:59:21;4.30;;;2.30;;
67804;SDS011;54603;45.638;11.714;2022-08-01T09:01:49;4.60;;;2.40;;
67804;SDS011;54603;45.638;11.714;2022-08-01T09:04:15;2.60;;;2.20;;
67804;SDS011;54603;45.638;11.714;2022-08-01T09:06:40;2.70;;;2.20;;
67804;SDS011;54603;45.638;11.714;2022-08-01T09:09:07;2.50;;;2.20;;
67804;SDS011;54603;45.638;11.714;2022-08-01T09:11:33;4.30;;;2.50;;
67804;SDS011;54603;45.638;11.714;2022-08-01T09:14:12;2.90;;;2.10;;
67804;SDS011;54603;45.638;11.714;2022-08-01T09:16:41;4.30;;;2.20;;
67804;SDS011;54603;45.638;11.714;2022-08-01T09:19:18;2.40;;;2.20;;
67804;SDS011;54603;45.638;11.714;2022-08-01T09:22:01;2.60;;;2.40;;
67804;SDS011;54603;45.638;11.714;2022-08-01T09:24:29;3.70;;;2.60;;
67804;SDS011;54603;45.638;11.714;2022-08-01T09:26:56;4.00;;;1.90;;
67804;SDS011;54603;45.638;11.714;2022-08-01T09:29:26;4.80;;;2.20;;
67804;SDS011;54603;45.638;11.714;2022-08-01T09:34:24;3.70;;;2.20;;
67804;SDS011;54603;45.638;11.714;2022-08-01T09:37:00;3.30;;;2.20;;
67804;SDS011;54603;45.638;11.714;2022-08-01T09:39:28;3.60;;;2.20;;
67804;SDS011;54603;45.638;11.714;2022-08-01T09:41:56;2.50;;;2.10;;
67804;SDS011;54603;45.638;11.714;2022-08-01T09:44:37;4.10;;;2.20;;
67804;SDS011;54603;45.638;11.714;2022-08-01T09:47:04;3.10;;;2.20;;
67804;SDS011;54603;45.638;11.714;2022-08-01T09:49:34;3.30;;;2.30;;
67804;SDS011;54603;45.638;11.714;2022-08-01T09:54:41;5.50;;;2.40;;
67804;SDS011;54603;45.638;11.714;2022-08-01T09:57:09;6.20;;;2.30;;
67804;SDS011;54603;45.638;11.714;2022-08-01T09:59:41;4.80;;;2.50;;
67804;SDS011;54603;45.638;11.714;2022-08-01T10:02:09;4.90;;;2.40;;
67804;SDS011;54603;45.638;11.714;2022-08-01T10:04:45;6.40;;;2.90;;
67804;SDS011;54603;45.638;11.714;2022-08-01T10:07:12;9.80;;;5.00;;
67804;SDS011;54603;45.638;11.714;2022-08-01T10:09:41;9.70;;;5.50;;
67804;SDS011;54603;45.638;11.714;2022-08-01T10:12:11;14.00;;;4.90;;
67804;SDS011;54603;45.638;11.714;2022-08-01T10:14:41;13.80;;;4.70;;
67804;SDS011;54603;45.638;11.714;2022-08-01T10:17:09;9.90;;;4.40;;
67804;SDS011;54603;45.638;11.714;2022-08-01T10:19:37;5.90;;;4.00;;
67804;SDS011;54603;45.638;11.714;2022-08-01T10:22:07;9.50;;;3.90;;
67804;SDS011;54603;45.638;11.714;2022-08-01T10:24:36;6.10;;;3.60;;
67804;SDS011;54603;45.638;11.714;2022-08-01T10:27:06;6.40;;;3.40;;
67804;SDS011;54603;45.638;11.714;2022-08-01T10:30:06;7.50;;;3.70;;
67804;SDS011;54603;45.638;11.714;2022-08-01T10:32:33;4.80;;;3.40;;
67804;SDS011;54603;45.638;11.714;2022-08-01T10:35:00;5.00;;;3.30;;
67804;SDS011;54603;45.638;11.714;2022-08-01T10:37:27;4.30;;;3.00;;
67804;SDS011;54603;45.638;11.714;2022-08-01T10:39:53;4.30;;;3.00;;
67804;SDS011;54603;45.638;11.714;2022-08-01T10:42:19;5.40;;;2.90;;
67804;SDS011;54603;45.638;11.714;2022-08-01T10:44:45;4.80;;;2.80;;
67804;SDS011;54603;45.638;11.714;2022-08-01T10:47:23;6.90;;;2.80;;
67804;SDS011;54603;45.638;11.714;2022-08-01T10:50:02;4.10;;;2.80;;
67804;SDS011;54603;45.638;11.714;2022-08-01T10:52:32;5.30;;;3.00;;
67804;SDS011;54603;45.638;11.714;2022-08-01T10:55:05;4.70;;;2.70;;
67804;SDS011;54603;45.638;11.714;2022-08-01T10:57:44;3.70;;;2.80;;
67804;SDS011;54603;45.638;11.714;2022-08-01T11:00:17;3.00;;;2.60;;
67804;SDS011;54603;45.638;11.714;2022-08-01T11:02:56;3.10;;;2.70;;
67804;SDS011;54603;45.638;11.714;2022-08-01T11:05:32;3.90;;;2.90;;
67804;SDS011;54603;45.638;11.714;2022-08-01T11:08:03;4.30;;;2.90;;
67804;SDS011;54603;45.638;11.714;2022-08-01T11:10:41;4.30;;;2.50;;
67804;SDS011;54603;45.638;11.714;2022-08-01T11:13:08;3.10;;;2.70;;
67804;SDS011;54603;45.638;11.714;2022-08-01T11:15:36;3.10;;;2.60;;
67804;SDS011;54603;45.638;11.714;2022-08-01T11:18:04;5.60;;;2.90;;
67804;SDS011;54603;45.638;11.714;2022-08-01T11:20:59;2.80;;;2.60;;
67804;SDS011;54603;45.638;11.714;2022-08-01T11:23:27;5.40;;;2.80;;
67804;SDS011;54603;45.638;11.714;2022-08-01T11:28:45;3.30;;;2.70;;
67804;SDS011;54603;45.638;11.714;2022-08-01T11:31:33;5.00;;;2.60;;
67804;SDS011;54603;45.638;11.714;2022-08-01T11:33:59;5.30;;;2.50;;
67804;SDS011;54603;45.638;11.714;2022-08-01T11:36:26;7.00;;;2.70;;
67804;SDS011;54603;45.638;11.714;2022-08-01T11:41:29;3.70;;;2.50;;
67804;SDS011;54603;45.638;11.714;2022-08-01T11:44:10;5.20;;;2.40;;
67804;SDS011;54603;45.638;11.714;2022-08-01T11:46:48;4.00;;;2.50;;
67804;SDS011;54603;45.638;11.714;2022-08-01T11:49:30;5.70;;;2.70;;
67804;SDS011;54603;45.638;11.714;2022-08-01T11:54:37;4.00;;;2.60;;
67804;SDS011;54603;45.638;11.714;2022-08-01T11:57:05;5.90;;;2.50;;
67804;SDS011;54603;45.638;11.714;2022-08-01T11:59:37;4.90;;;2.50;;
67804;SDS011;54603;45.638;11.714;2022-08-01T12:02:03;7.00;;;2.50;;
67804;SDS011;54603;45.638;11.714;2022-08-01T12:04:45;5.80;;;2.60;;
67804;SDS011;54603;45.638;11.714;2022-08-01T12:07:12;4.80;;;2.50;;
67804;SDS011;54603;45.638;11.714;2022-08-01T12:09:41;8.20;;;3.00;;
67804;SDS011;54603;45.638;11.714;2022-08-01T12:12:07;3.00;;;2.60;;
67804;SDS011;54603;45.638;11.714;2022-08-01T12:14:33;6.50;;;2.50;;
67804;SDS011;54603;45.638;11.714;2022-08-01T12:16:59;3.60;;;2.50;;
67804;SDS011;54603;45.638;11.714;2022-08-01T12:19:24;5.30;;;3.20;;
67804;SDS011;54603;45.638;11.714;2022-08-01T12:22:06;4.60;;;2.60;;
67804;SDS011;54603;45.638;11.714;2022-08-01T12:24:32;3.60;;;2.60;;
67804;SDS011;54603;45.638;11.714;2022-08-01T12:27:02;3.20;;;2.40;;
67804;SDS011;54603;45.638;11.714;2022-08-01T12:29:36;4.30;;;2.80;;
67804;SDS011;54603;45.638;11.714;2022-08-01T12:37:32;3.40;;;2.50;;
67804;SDS011;54603;45.638;11.714;2022-08-01T12:40:02;4.00;;;2.20;;
67804;SDS011;54603;45.638;11.714;2022-08-01T12:42:36;4.10;;;2.50;;
67804;SDS011;54603;45.638;11.714;2022-08-01T12:45:04;5.00;;;2.80;;
67804;SDS011;54603;45.638;11.714;2022-08-01T12:47:31;3.60;;;2.20;;
67804;SDS011;54603;45.638;11.714;2022-08-01T12:49:57;4.10;;;2.30;;
67804;SDS011;54603;45.638;11.714;2022-08-01T12:52:24;4.00;;;2.50;;
67804;SDS011;54603;45.638;11.714;2022-08-01T12:55:06;5.40;;;2.40;;
67804;SDS011;54603;45.638;11.714;2022-08-01T12:57:36;4.40;;;2.50;;
67804;SDS011;54603;45.638;11.714;2022-08-01T13:00:06;5.80;;;2.60;;
67804;SDS011;54603;45.638;11.714;2022-08-01T13:02:43;5.40;;;2.60;;
67804;SDS011;54603;45.638;11.714;2022-08-01T13:05:12;5.00;;;2.70;;
67804;SDS011;54603;45.638;11.714;2022-08-01T13:07:49;3.90;;;2.50;;
67804;SDS011;54603;45.638;11.714;2022-08-01T13:10:24;4.90;;;2.50;;
67804;SDS011;54603;45.638;11.714;2022-08-01T13:12:52;5.90;;;2.50;;
67804;SDS011;54603;45.638;11.714;2022-08-01T13:15:23;5.30;;;2.30;;
67804;SDS011;54603;45.638;11.714;2022-08-01T13:17:52;4.00;;;2.60;;
67804;SDS011;54603;45.638;11.714;2022-08-01T13:23:13;3.90;;;2.40;;
67804;SDS011;54603;45.638;11.714;2022-08-01T13:25:47;5.70;;;2.30;;
67804;SDS011;54603;45.638;11.714;2022-08-01T13:28:23;5.30;;;2.50;;
67804;SDS011;54603;45.638;11.714;2022-08-01T13:30:51;6.60;;;2.50;;
67804;SDS011;54603;45.638;11.714;2022-08-01T13:33:19;5.00;;;2.40;;
67804;SDS011;54603;45.638;11.714;2022-08-01T13:35:45;4.50;;;2.40;;
67804;SDS011;54603;45.638;11.714;2022-08-01T13:38:14;3.10;;;2.80;;
67804;SDS011;54603;45.638;11.714;2022-08-01T13:41:11;3.10;;;2.00;;
67804;SDS011;54603;45.638;11.714;2022-08-01T13:43:44;2.50;;;2.10;;
67804;SDS011;54603;45.638;11.714;2022-08-01T13:46:10;3.80;;;2.30;;
67804;SDS011;54603;45.638;11.714;2022-08-01T13:51:07;2.70;;;2.20;;
67804;SDS011;54603;45.638;11.714;2022-08-01T13:53:36;4.40;;;2.40;;
67804;SDS011;54603;45.638;11.714;2022-08-01T13:56:05;3.10;;;2.10;;
67804;SDS011;54603;45.638;11.714;2022-08-01T13:58:33;5.40;;;2.40;;
67804;SDS011;54603;45.638;11.714;2022-08-01T14:00:58;2.90;;;2.10;;
67804;SDS011;54603;45.638;11.714;2022-08-01T14:03:24;3.10;;;2.10;;
67804;SDS011;54603;45.638;11.714;2022-08-01T14:05:49;4.80;;;2.10;;
67804;SDS011;54603;45.638;11.714;2022-08-01T14:08:15;2.70;;;2.20;;
67804;SDS011;54603;45.638;11.714;2022-08-01T14:10:41;5.10;;;2.00;;
67804;SDS011;54603;45.638;11.714;2022-08-01T14:13:06;3.60;;;2.20;;
67804;SDS011;54603;45.638;11.714;2022-08-01T14:15:32;3.30;;;2.10;;
67804;SDS011;54603;45.638;11.714;2022-08-01T14:17:58;3.00;;;2.00;;
67804;SDS011;54603;45.638;11.714;2022-08-01T14:20:24;6.80;;;2.50;;
67804;SDS011;54603;45.638;11.714;2022-08-01T14:22:50;2.40;;;2.00;;
67804;SDS011;54603;45.638;11.714;2022-08-01T14:25:15;4.00;;;1.80;;
67804;SDS011;54603;45.638;11.714;2022-08-01T14:27:43;9.30;;;2.40;;
67804;SDS011;54603;45.638;11.714;2022-08-01T14:30:10;3.00;;;1.90;;
67804;SDS011;54603;45.638;11.714;2022-08-01T14:32:36;2.90;;;1.90;;
67804;SDS011;54603;45.638;11.714;2022-08-01T14:35:03;2.30;;;2.00;;
67804;SDS011;54603;45.638;11.714;2022-08-01T14:37:29;2.60;;;2.00;;
67804;SDS011;54603;45.638;11.714;2022-08-01T14:39:56;3.30;;;2.10;;
67804;SDS011;54603;45.638;11.714;2022-08-01T14:42:22;2.40;;;1.90;;
67804;SDS011;54603;45.638;11.714;2022-08-01T14:44:48;3.80;;;2.10;;
67804;SDS011;54603;45.638;11.714;2022-08-01T14:47:14;3.60;;;2.30;;
67804;SDS011;54603;45.638;11.714;2022-08-01T14:49:39;3.70;;;2.10;;
67804;SDS011;54603;45.638;11.714;2022-08-01T14:52:05;4.90;;;2.20;;
67804;SDS011;54603;45.638;11.714;2022-08-01T14:54:31;2.20;;;2.00;;
67804;SDS011;54603;45.638;11.714;2022-08-01T14:56:56;2.20;;;2.00;;
67804;SDS011;54603;45.638;11.714;2022-08-01T14:59:22;3.50;;;2.40;;
67804;SDS011;54603;45.638;11.714;2022-08-01T15:01:47;7.00;;;2.40;;
67804;SDS011;54603;45.638;11.714;2022-08-01T15:04:13;4.20;;;2.00;;
67804;SDS011;54603;45.638;11.714;2022-08-01T15:06:39;3.70;;;2.20;;
67804;SDS011;54603;45.638;11.714;2022-08-01T15:09:05;4.00;;;1.90;;
67804;SDS011;54603;45.638;11.714;2022-08-01T15:11:30;3.80;;;2.00;;
67804;SDS011;54603;45.638;11.714;2022-08-01T15:13:56;4.00;;;2.30;;
67804;SDS011;54603;45.638;11.714;2022-08-01T15:16:40;2.30;;;2.10;;
67804;SDS011;54603;45.638;11.714;2022-08-01T15:19:06;4.00;;;2.10;;
67804;SDS011;54603;45.638;11.714;2022-08-01T15:21:33;2.00;;;1.80;;